createdAt,value
2019-02-05T00:01:47.456Z,6.23
2019-02-05T00:04:16.555Z,5.47
2019-02-05T00:06:45.672Z,6.10
2019-02-05T00:09:14.719Z,5.40
2019-02-05T00:11:43.779Z,6.23
2019-02-05T00:14:12.849Z,5.60
2019-02-05T00:16:42.224Z,5.70
2019-02-05T00:19:11.310Z,5.90
2019-02-05T00:21:40.402Z,5.83
2019-02-05T00:24:09.418Z,6.20
2019-02-05T00:26:38.537Z,4.50
2019-02-05T00:29:07.606Z,5.27
2019-02-05T00:31:36.937Z,5.23
2019-02-05T00:34:06.040Z,5.87
2019-02-05T00:36:35.118Z,5.80
2019-02-05T00:39:05.453Z,6.27
2019-02-05T00:41:34.607Z,6.57
2019-02-05T00:44:03.684Z,6.33
2019-02-05T00:46:33.255Z,5.80
2019-02-05T00:49:02.302Z,6.23
2019-02-05T00:51:31.382Z,6.30
2019-02-05T00:54:00.436Z,6.83
2019-02-05T00:56:29.434Z,5.80
2019-02-05T00:58:58.460Z,6.73
2019-02-05T01:01:27.866Z,6.00
2019-02-05T01:03:56.935Z,6.40
2019-02-05T01:06:26.015Z,6.23
2019-02-05T01:08:55.197Z,5.20
2019-02-05T01:11:24.241Z,6.83
2019-02-05T01:13:53.318Z,6.60
2019-02-05T01:16:22.621Z,6.17
2019-02-05T01:18:51.745Z,6.27
2019-02-05T01:21:20.796Z,5.93
2019-02-05T01:23:49.790Z,6.27
2019-02-05T01:26:28.698Z,6.50
2019-02-05T01:28:49.573Z,5.97
2019-02-05T01:31:18.814Z,5.67
2019-02-05T01:33:47.889Z,6.80
2019-02-05T01:36:16.917Z,6.20
2019-02-05T01:38:45.947Z,6.47
2019-02-05T01:41:14.987Z,5.83
2019-02-05T01:43:43.998Z,6.47
2019-02-05T01:46:13.146Z,5.20
2019-02-05T01:48:42.180Z,7.53
2019-02-05T01:51:11.251Z,6.43
2019-02-05T01:53:40.262Z,6.83
2019-02-05T01:56:09.278Z,6.83
2019-02-05T01:58:38.317Z,6.83
2019-02-05T02:01:07.615Z,6.87
2019-02-05T02:03:36.619Z,7.27
2019-02-05T02:06:05.569Z,7.07
2019-02-05T02:08:34.557Z,6.53
2019-02-05T02:11:03.599Z,6.90
2019-02-05T02:13:32.602Z,6.57
2019-02-05T02:16:01.933Z,6.87
2019-02-05T02:18:31.051Z,6.73
2019-02-05T02:21:00.130Z,7.23
2019-02-05T02:23:29.243Z,7.10
2019-02-05T02:25:58.238Z,7.33
2019-02-05T02:28:27.247Z,6.93
2019-02-05T02:30:56.478Z,6.13
2019-02-05T02:33:25.543Z,6.63
2019-02-05T02:35:54.447Z,6.80
2019-02-05T02:38:23.499Z,6.60
2019-02-05T02:40:52.650Z,7.13
2019-02-05T02:43:21.643Z,7.23
2019-02-05T02:45:50.637Z,7.80
2019-02-05T02:48:19.678Z,7.20
2019-02-05T02:50:48.686Z,6.70
2019-02-05T02:53:17.730Z,6.27
2019-02-05T02:55:46.722Z,7.77
2019-02-05T02:58:15.625Z,6.97
2019-02-05T03:00:44.642Z,7.47
2019-02-05T03:03:13.621Z,7.63
2019-02-05T03:05:44.357Z,7.37
2019-02-05T03:08:13.464Z,7.50
2019-02-05T03:10:42.456Z,7.07
2019-02-05T03:13:11.438Z,7.10
2019-02-05T03:15:40.442Z,7.03
2019-02-05T03:18:09.448Z,6.70
2019-02-05T03:20:38.456Z,7.27
2019-02-05T03:23:07.387Z,7.83
2019-02-05T03:25:36.429Z,6.90
2019-02-05T03:28:05.412Z,7.63
2019-02-05T03:30:34.384Z,8.07
2019-02-05T03:33:03.457Z,8.63
2019-02-05T03:35:32.392Z,8.70
2019-02-05T03:38:01.688Z,8.33
2019-02-05T03:41:03.941Z,7.73
2019-02-05T03:43:33.171Z,8.13
2019-02-05T03:46:03.957Z,8.43
2019-02-05T03:48:33.464Z,8.53
2019-02-05T03:51:10.752Z,7.70
2019-02-05T03:53:41.718Z,7.63
2019-02-05T03:56:54.299Z,7.60
2019-02-05T03:59:56.038Z,7.67
2019-02-05T04:03:00.478Z,7.73
2019-02-05T04:05:47.431Z,7.97
2019-02-05T04:08:51.366Z,7.90
2019-02-05T04:12:01.668Z,8.33
2019-02-05T04:15:24.294Z,8.70
2019-02-05T04:18:41.325Z,8.87
2019-02-05T04:21:46.788Z,8.43
2019-02-05T04:25:02.839Z,9.20
2019-02-05T04:28:01.560Z,10.03
2019-02-05T04:31:10.549Z,9.60
2019-02-05T04:34:16.403Z,9.67
2019-02-05T04:37:26.212Z,6.53
2019-02-05T04:40:21.916Z,7.80
2019-02-05T04:43:20.103Z,8.63
2019-02-05T04:46:14.757Z,8.63
2019-02-05T04:49:18.761Z,8.10
2019-02-05T04:52:34.868Z,9.00
2019-02-05T04:55:40.422Z,9.10
2019-02-05T04:58:50.984Z,9.30
2019-02-05T05:01:45.842Z,9.20
2019-02-05T05:04:41.028Z,9.30
2019-02-05T05:07:47.325Z,10.17
2019-02-05T05:10:16.345Z,9.43
2019-02-05T05:12:45.365Z,9.67
2019-02-05T05:15:14.414Z,10.57
2019-02-05T05:17:43.485Z,10.03
2019-02-05T05:20:13.052Z,9.97
2019-02-05T05:22:42.118Z,9.77
2019-02-05T05:25:11.772Z,10.33
2019-02-05T05:27:40.823Z,9.83
2019-02-05T05:30:16.356Z,10.83
2019-02-05T05:32:45.394Z,11.33
2019-02-05T05:35:14.376Z,11.93
2019-02-05T05:37:43.425Z,10.17
2019-02-05T05:40:12.539Z,10.37
2019-02-05T05:42:41.569Z,11.50
2019-02-05T05:45:13.136Z,11.93
2019-02-05T05:47:42.212Z,11.60
2019-02-05T05:50:13.893Z,11.53
2019-02-05T05:52:42.871Z,12.00
2019-02-05T05:55:12.198Z,11.40
2019-02-05T05:57:41.193Z,11.17
2019-02-05T06:00:16.173Z,12.00
2019-02-05T06:02:45.190Z,12.23
2019-02-05T06:05:15.404Z,11.83
2019-02-05T06:07:44.354Z,12.37
2019-02-05T06:10:14.049Z,12.20
2019-02-05T06:12:43.076Z,12.57
2019-02-05T06:15:12.192Z,13.10
2019-02-05T06:17:42.034Z,12.67
2019-02-05T06:20:13.446Z,12.57
2019-02-05T06:22:42.483Z,11.60
2019-02-05T06:25:11.820Z,12.20
2019-02-05T06:27:40.848Z,12.03
2019-02-05T06:30:10.814Z,14.27
2019-02-05T06:32:39.900Z,13.13
2019-02-05T06:35:08.995Z,14.60
2019-02-05T06:37:38.013Z,13.77
2019-02-05T06:40:07.826Z,12.63
2019-02-05T06:42:36.826Z,13.60
2019-02-05T06:45:06.679Z,13.80
2019-02-05T06:47:35.738Z,13.00
2019-02-05T06:50:05.481Z,12.07
2019-02-05T06:52:34.542Z,13.73
2019-02-05T06:55:03.625Z,14.00
2019-02-05T06:57:32.930Z,14.43
2019-02-05T07:00:02.017Z,12.77
2019-02-05T07:02:31.081Z,13.77
2019-02-05T07:05:00.074Z,14.87
2019-02-05T07:07:29.087Z,15.00
2019-02-05T07:09:58.121Z,13.17
2019-02-05T07:12:27.213Z,13.97
2019-02-05T07:14:56.277Z,14.70
2019-02-05T07:17:25.368Z,14.67
2019-02-05T07:19:54.397Z,14.40
2019-02-05T07:22:23.456Z,14.30
2019-02-05T07:24:52.473Z,14.07
2019-02-05T07:27:21.515Z,15.23
2019-02-05T07:29:51.014Z,14.60
2019-02-05T07:32:20.025Z,14.37
2019-02-05T07:34:49.017Z,13.87
2019-02-05T07:37:18.151Z,15.00
2019-02-05T07:39:47.095Z,14.37
2019-02-05T07:42:16.254Z,14.80
2019-02-05T07:44:45.285Z,13.23
2019-02-05T07:47:14.375Z,13.13
2019-02-05T07:49:43.410Z,15.00
2019-02-05T07:52:12.491Z,14.83
2019-02-05T07:54:41.498Z,13.83
2019-02-05T07:57:10.611Z,13.77
2019-02-05T07:59:39.662Z,14.10
2019-02-05T08:02:08.753Z,13.60
2019-02-05T08:04:37.764Z,13.37
2019-02-05T08:07:07.694Z,15.00
2019-02-05T08:09:36.810Z,13.73
2019-02-05T08:12:05.933Z,16.90
2019-02-05T08:14:34.988Z,14.60
2019-02-05T08:17:04.031Z,14.40
2019-02-05T08:19:33.089Z,13.67
2019-02-05T08:22:02.435Z,14.70
2019-02-05T08:24:31.750Z,14.23
2019-02-05T08:27:00.795Z,14.53
2019-02-05T08:29:29.889Z,13.67
2019-02-05T08:31:58.919Z,14.30
2019-02-05T08:34:27.964Z,12.93
2019-02-05T08:36:57.027Z,14.53
2019-02-05T08:39:26.055Z,14.63
2019-02-05T08:41:55.391Z,13.17
2019-02-05T08:44:24.431Z,14.27
2019-02-05T08:46:53.664Z,15.00
2019-02-05T08:49:22.714Z,14.67
2019-02-05T08:51:51.778Z,14.33
2019-02-05T08:54:20.975Z,14.90
2019-02-05T08:56:50.007Z,13.77
2019-02-05T08:59:19.369Z,13.40
2019-02-05T09:01:48.356Z,14.23
2019-02-05T09:04:17.393Z,13.50
2019-02-05T09:06:46.380Z,14.50
2019-02-05T09:09:15.389Z,13.90
2019-02-05T09:11:44.334Z,13.60
2019-02-05T09:14:13.262Z,14.60
2019-02-05T09:16:42.735Z,13.27
2019-02-05T09:19:11.779Z,13.67
2019-02-05T09:21:40.822Z,13.77
2019-02-05T09:24:09.828Z,14.30
2019-02-05T09:26:38.910Z,13.97
2019-02-05T09:29:08.016Z,14.20
2019-02-05T09:31:37.078Z,14.90
2019-02-05T09:34:06.144Z,13.93
2019-02-05T09:36:35.201Z,13.97
2019-02-05T09:39:06.778Z,13.60
2019-02-05T09:41:35.797Z,13.40
2019-02-05T09:44:04.755Z,13.40
2019-02-05T09:46:33.785Z,14.53
2019-02-05T09:49:03.458Z,14.13
2019-02-05T09:51:32.590Z,15.67
2019-02-05T09:54:01.664Z,14.63
2019-02-05T09:56:30.773Z,15.30
2019-02-05T09:58:59.838Z,15.00
2019-02-05T10:01:28.879Z,14.00
2019-02-05T10:03:57.903Z,15.20
2019-02-05T10:06:27.097Z,14.90
2019-02-05T10:08:56.159Z,15.20
2019-02-05T10:11:25.192Z,14.93
2019-02-05T10:13:54.251Z,15.30
2019-02-05T10:16:23.316Z,15.83
2019-02-05T10:18:53.103Z,17.47
2019-02-05T10:21:22.151Z,16.93
2019-02-05T10:23:51.203Z,17.53
2019-02-05T10:26:20.286Z,16.30
2019-02-05T10:28:49.277Z,16.77
2019-02-05T10:31:18.342Z,18.20
2019-02-05T10:33:54.987Z,16.60
2019-02-05T10:36:18.248Z,16.27
2019-02-05T10:38:47.525Z,16.33
2019-02-05T10:41:16.711Z,15.00
2019-02-05T10:43:45.733Z,15.87
2019-02-05T10:46:14.835Z,15.23
2019-02-05T10:48:43.897Z,15.63
2019-02-05T10:51:13.051Z,14.87
2019-02-05T10:53:42.080Z,16.77
2019-02-05T10:56:11.406Z,15.63
2019-02-05T10:58:40.458Z,15.00
2019-02-05T11:01:09.691Z,16.13
2019-02-05T11:03:38.854Z,14.87
2019-02-05T11:06:07.909Z,15.87
2019-02-05T11:08:36.956Z,15.10
2019-02-05T11:11:06.005Z,16.10
2019-02-05T11:13:35.276Z,15.67
2019-02-05T11:16:04.430Z,16.90
2019-02-05T11:18:33.544Z,16.47
2019-02-05T11:21:04.472Z,14.83
2019-02-05T11:23:33.617Z,16.43
2019-02-05T12:28:36.200Z,19.90
2019-02-05T12:31:06.278Z,18.63
2019-02-05T12:33:35.407Z,17.83
2019-02-05T12:36:04.480Z,17.87
2019-02-05T12:38:44.580Z,16.97
2019-02-05T12:41:23.801Z,19.00
2019-02-05T12:43:50.599Z,17.90
2019-02-05T12:46:32.349Z,19.47
2019-02-05T12:49:02.206Z,17.50
2019-02-05T12:51:31.528Z,17.77
2019-02-05T12:54:29.123Z,18.73
2019-02-05T12:57:27.039Z,18.30
2019-02-05T13:00:04.022Z,16.87
2019-02-05T13:02:41.572Z,19.93
2019-02-05T13:05:11.420Z,19.37
2019-02-05T13:07:58.372Z,19.03
2019-02-05T13:10:33.522Z,19.30
2019-02-05T13:16:00.689Z,20.23
2019-02-05T13:18:29.825Z,18.53
2019-02-05T13:20:58.876Z,19.50
2019-02-05T13:23:28.007Z,21.13
2019-02-05T13:25:57.105Z,18.40
2019-02-05T13:28:29.248Z,20.10
2019-02-05T13:31:07.764Z,19.43
2019-02-05T13:33:30.147Z,18.77
2019-02-05T13:35:59.686Z,19.80
2019-02-05T13:38:31.574Z,18.47
2019-02-05T13:41:03.175Z,19.17
2019-02-05T13:44:01.034Z,18.63
2019-02-05T13:46:42.975Z,20.37
2019-02-05T13:49:35.659Z,19.20
2019-02-05T13:52:30.017Z,19.93
2019-02-05T13:55:05.708Z,18.90
2019-02-05T13:57:36.445Z,18.33
2019-02-05T14:00:08.692Z,20.70
2019-02-05T14:02:38.286Z,20.33
2019-02-05T14:05:08.920Z,19.87
2019-02-05T14:07:38.211Z,19.40
2019-02-05T14:10:11.391Z,19.67
2019-02-05T14:12:40.735Z,19.93
2019-02-05T14:15:10.577Z,19.97
2019-02-05T14:17:40.286Z,20.63
2019-02-05T14:20:10.437Z,20.20
2019-02-05T14:22:40.296Z,19.10
2019-02-05T14:25:14.451Z,19.50
2019-02-05T14:27:44.411Z,18.67
2019-02-05T14:30:20.311Z,18.90
2019-02-05T14:32:49.516Z,19.40
2019-02-05T14:38:49.999Z,17.50
2019-02-05T14:42:06.933Z,18.10
2019-02-05T14:44:42.979Z,18.70
2019-02-05T14:47:21.993Z,18.63
2019-02-05T14:49:51.224Z,16.10
2019-02-05T14:52:20.911Z,18.73
2019-02-05T14:54:53.291Z,17.27
2019-02-05T14:57:22.647Z,17.73
2019-02-05T14:59:51.991Z,17.63
2019-02-05T15:02:21.403Z,19.10
2019-02-05T15:04:51.108Z,19.47
2019-02-05T15:07:20.584Z,18.03
2019-02-05T15:09:50.085Z,18.27
2019-02-05T15:12:19.410Z,17.30
2019-02-05T15:14:48.680Z,19.90
2019-02-05T15:17:17.964Z,19.87
2019-02-05T15:19:47.245Z,18.97
2019-02-05T15:22:16.840Z,18.90
2019-02-05T16:27:07.643Z,17.57
2019-02-05T16:29:41.483Z,19.53
2019-02-05T16:32:17.647Z,17.80
2019-02-05T16:38:27.223Z,17.30
2019-02-05T16:41:01.818Z,18.60
2019-02-05T16:44:00.252Z,18.40
2019-02-05T16:46:52.596Z,19.77
2019-02-05T16:49:27.462Z,18.40
2019-02-05T16:52:41.523Z,19.53
2019-02-05T16:55:11.360Z,18.20
2019-02-05T16:57:41.621Z,18.93
2019-02-05T17:00:19.725Z,20.53
2019-02-05T17:02:49.412Z,18.03
2019-02-05T17:05:19.110Z,18.17
2019-02-05T17:07:48.526Z,16.77
2019-02-05T17:10:21.873Z,18.27
2019-02-05T17:12:51.386Z,16.37
2019-02-05T17:15:20.898Z,17.20
2019-02-05T17:17:50.742Z,16.03
2019-02-05T17:20:24.416Z,16.43
2019-02-05T17:22:53.903Z,16.07
2019-02-05T17:25:24.071Z,16.03
2019-02-05T17:27:53.470Z,16.93
2019-02-05T17:30:24.337Z,17.57
2019-02-05T17:32:53.435Z,17.03
2019-02-05T17:35:22.615Z,16.20
2019-02-05T17:37:51.733Z,16.90
2019-02-05T17:40:22.181Z,15.53
2019-02-05T17:42:51.533Z,15.43
2019-02-05T17:45:22.632Z,13.90
2019-02-05T17:47:51.884Z,14.97
2019-02-05T17:50:21.013Z,18.17
2019-02-05T17:52:50.196Z,17.77
2019-02-05T17:55:19.706Z,16.00
2019-02-05T17:57:48.774Z,16.13
2019-02-05T18:00:25.120Z,16.27
2019-02-05T18:02:53.966Z,17.57
2019-02-05T18:05:23.257Z,16.77
2019-02-05T18:07:52.326Z,17.07
2019-02-05T18:10:23.806Z,29.87
2019-02-05T18:12:52.796Z,16.77
2019-02-05T18:15:24.213Z,16.00
2019-02-05T18:17:53.502Z,15.60
2019-02-05T18:20:22.516Z,16.77
2019-02-05T18:22:52.061Z,16.07
2019-02-05T18:25:21.442Z,30.63
2019-02-05T18:27:50.578Z,21.10
2019-02-05T18:30:30.867Z,17.50
2019-02-05T18:33:05.574Z,16.37
2019-02-05T18:35:30.644Z,16.17
2019-02-05T18:37:59.825Z,16.73
2019-02-05T18:40:28.892Z,14.97
2019-02-05T18:42:57.926Z,14.83
2019-02-05T18:45:26.937Z,16.13
2019-02-05T18:47:56.216Z,13.47
2019-02-05T18:50:25.839Z,14.87
2019-02-05T18:52:54.987Z,15.47
2019-02-05T18:55:25.839Z,14.83
2019-02-05T18:57:54.941Z,13.60
2019-02-05T19:00:49.296Z,14.77
2019-02-05T19:03:18.417Z,12.90
2019-02-05T19:05:47.442Z,13.47
2019-02-05T19:08:16.973Z,13.60
2019-02-05T19:10:45.981Z,15.27
2019-02-05T19:13:15.040Z,13.80
2019-02-05T19:15:44.458Z,12.00
2019-02-05T19:18:13.516Z,13.17
2019-02-05T19:20:42.556Z,13.33
2019-02-05T19:23:11.673Z,14.20
2019-02-05T19:25:59.688Z,14.33
2019-02-05T19:28:33.526Z,14.00
2019-02-05T19:31:05.987Z,15.03
2019-02-05T19:33:34.979Z,14.37
2019-02-05T19:36:03.991Z,13.00
2019-02-05T19:38:33.083Z,14.70
2019-02-05T19:41:02.618Z,12.43
2019-02-05T19:43:31.632Z,13.47
2019-02-05T19:46:19.240Z,13.60
2019-02-05T19:48:54.360Z,14.00
2019-02-05T19:51:23.363Z,12.57
2019-02-05T19:53:54.002Z,10.77
2019-02-05T19:56:23.500Z,12.97
2019-02-05T19:58:52.636Z,12.67
2019-02-05T20:01:21.712Z,13.83
2019-02-05T20:03:50.750Z,13.10
2019-02-05T20:06:19.958Z,11.40
2019-02-05T20:08:49.094Z,12.67
2019-02-05T20:11:18.437Z,14.07
2019-02-05T20:13:47.497Z,13.30
2019-02-05T20:16:16.502Z,12.57
2019-02-05T20:18:45.595Z,13.47
2019-02-05T20:21:14.685Z,13.13
2019-02-05T20:23:43.771Z,13.57
2019-02-05T20:26:12.899Z,13.60
2019-02-05T20:28:41.900Z,13.87
2019-02-05T20:31:10.971Z,12.83
2019-02-05T20:33:49.758Z,14.07
2019-02-05T20:36:10.815Z,14.27
2019-02-05T20:38:39.925Z,13.80
2019-02-05T20:41:08.969Z,14.33
2019-02-05T20:43:45.189Z,13.93
2019-02-05T20:46:14.253Z,12.60
2019-02-05T20:48:43.248Z,12.90
2019-02-05T20:51:12.501Z,11.87
2019-02-05T20:53:41.479Z,13.07
2019-02-05T20:56:10.495Z,13.20
2019-02-05T20:58:39.523Z,13.73
2019-02-05T21:01:08.480Z,13.10
2019-02-05T21:03:37.567Z,12.53
2019-02-05T21:06:07.129Z,12.97
2019-02-05T21:08:36.137Z,12.43
2019-02-05T21:11:05.337Z,12.27
2019-02-05T21:13:34.430Z,12.33
2019-02-05T21:16:03.836Z,12.30
2019-02-05T21:18:32.905Z,13.10
2019-02-05T21:21:02.003Z,12.70
2019-02-05T21:23:30.942Z,11.30
2019-02-05T21:25:59.975Z,12.30
2019-02-05T21:28:29.008Z,12.47
2019-02-05T21:30:58.029Z,11.83
2019-02-05T21:33:27.594Z,12.70
2019-02-05T21:35:56.616Z,12.87
2019-02-05T21:38:25.682Z,12.27
2019-02-05T21:40:54.689Z,11.90
2019-02-05T21:43:23.789Z,12.87
2019-02-05T21:45:52.801Z,12.83
2019-02-05T21:48:22.165Z,11.73
2019-02-05T21:50:51.186Z,12.40
2019-02-05T21:53:20.251Z,12.17
2019-02-05T21:55:49.271Z,11.73
2019-02-05T21:58:18.339Z,11.70
2019-02-05T22:00:47.346Z,11.83
2019-02-05T22:03:16.361Z,11.40
2019-02-05T22:05:45.649Z,11.63
2019-02-05T22:08:14.658Z,10.93
2019-02-05T22:10:43.611Z,12.10
2019-02-05T22:13:12.649Z,12.60
2019-02-05T22:15:41.693Z,10.97
2019-02-05T22:18:10.684Z,12.17
2019-02-05T22:20:39.716Z,11.93
2019-02-05T22:23:09.008Z,11.57
2019-02-05T22:25:38.072Z,11.03
2019-02-05T22:28:07.075Z,11.33
2019-02-05T22:30:36.405Z,9.77
2019-02-05T22:33:05.597Z,9.90
2019-02-05T22:35:34.656Z,10.47
2019-02-05T22:38:03.673Z,9.93
2019-02-05T22:40:32.586Z,9.57
2019-02-05T22:43:01.961Z,10.83
2019-02-05T22:45:31.064Z,8.47
2019-02-05T22:48:00.054Z,9.13
2019-02-05T22:50:30.720Z,7.97
2019-02-05T22:53:00.341Z,7.17
2019-02-05T22:55:29.327Z,7.23
2019-02-05T22:57:58.289Z,7.03
2019-02-05T23:00:52.046Z,6.97
2019-02-05T23:03:59.672Z,5.77
2019-02-05T23:06:59.123Z,5.10
2019-02-05T23:09:35.534Z,5.40
2019-02-05T23:12:13.095Z,6.77
2019-02-05T23:14:42.517Z,6.27
2019-02-05T23:17:11.530Z,6.00
2019-02-05T23:19:40.615Z,4.43
2019-02-05T23:22:09.628Z,4.90
2019-02-05T23:24:38.676Z,5.40
2019-02-05T23:27:07.755Z,4.90
2019-02-05T23:29:36.816Z,4.83
2019-02-05T23:32:05.832Z,4.33
2019-02-05T23:34:34.805Z,4.87
2019-02-05T23:37:03.823Z,3.53
2019-02-05T23:39:32.856Z,4.90
2019-02-05T23:42:01.847Z,4.80
2019-02-05T23:44:30.840Z,4.80
2019-02-05T23:47:00.048Z,4.73
2019-02-05T23:49:29.110Z,4.73
2019-02-05T23:51:58.128Z,4.63
2019-02-05T23:54:27.039Z,4.63
2019-02-05T23:56:56.023Z,4.40
2019-02-05T23:59:25.029Z,4.67
